sensor_id;sensor_type;location;lat;lon;timestamp;temperature;humidity
8340;DHT22;4207;49.314;7.162;2023-02-08T00:01:09;-1.70;99.90
8340;DHT22;4207;49.314;7.162;2023-02-08T00:03:38;-1.70;99.90
8340;DHT22;4207;49.314;7.162;2023-02-08T00:06:07;-1.80;99.90
8340;DHT22;4207;49.314;7.162;2023-02-08T00:08:36;-1.80;99.90
8340;DHT22;4207;49.314;7.162;2023-02-08T00:11:05;-1.80;99.90
8340;DHT22;4207;49.314;7.162;2023-02-08T00:13:33;-1.80;99.90
8340;DHT22;4207;49.314;7.162;2023-02-08T00:16:01;-1.80;99.90
8340;DHT22;4207;49.314;7.162;2023-02-08T00:18:29;-1.80;99.90
8340;DHT22;4207;49.314;7.162;2023-02-08T00:20:59;-1.80;99.90
8340;DHT22;4207;49.314;7.162;2023-02-08T00:23:27;-1.80;99.90
8340;DHT22;4207;49.314;7.162;2023-02-08T00:25:55;-1.80;99.90
8340;DHT22;4207;49.314;7.162;2023-02-08T00:28:22;-1.80;99.90
8340;DHT22;4207;49.314;7.162;2023-02-08T00:30:51;-1.80;99.90
8340;DHT22;4207;49.314;7.162;2023-02-08T00:33:19;-1.80;99.90
8340;DHT22;4207;49.314;7.162;2023-02-08T00:35:46;-1.80;99.90
8340;DHT22;4207;49.314;7.162;2023-02-08T00:38:16;-1.80;99.90
8340;DHT22;4207;49.314;7.162;2023-02-08T00:40:44;-1.80;99.90
8340;DHT22;4207;49.314;7.162;2023-02-08T00:43:12;-1.80;99.90
8340;DHT22;4207;49.314;7.162;2023-02-08T00:45:41;-1.80;99.90
8340;DHT22;4207;49.314;7.162;2023-02-08T00:48:09;-1.80;99.90
8340;DHT22;4207;49.314;7.162;2023-02-08T00:50:37;-1.90;99.90
8340;DHT22;4207;49.314;7.162;2023-02-08T00:53:05;-1.80;99.90
8340;DHT22;4207;49.314;7.162;2023-02-08T00:55:34;-1.80;99.90
8340;DHT22;4207;49.314;7.162;2023-02-08T00:58:03;-1.80;99.90
8340;DHT22;4207;49.314;7.162;2023-02-08T01:00:31;-1.90;99.90
8340;DHT22;4207;49.314;7.162;2023-02-08T01:02:59;-1.90;99.90
8340;DHT22;4207;49.314;7.162;2023-02-08T01:05:27;-1.90;99.90
8340;DHT22;4207;49.314;7.162;2023-02-08T01:07:55;-1.90;99.90
8340;DHT22;4207;49.314;7.162;2023-02-08T01:10:23;-1.90;99.90
8340;DHT22;4207;49.314;7.162;2023-02-08T01:12:53;-1.90;99.90
8340;DHT22;4207;49.314;7.162;2023-02-08T01:15:21;-1.90;99.90
8340;DHT22;4207;49.314;7.162;2023-02-08T01:17:52;-1.90;99.90
8340;DHT22;4207;49.314;7.162;2023-02-08T01:20:21;-1.90;99.90
8340;DHT22;4207;49.314;7.162;2023-02-08T01:22:49;-1.90;99.90
8340;DHT22;4207;49.314;7.162;2023-02-08T01:25:17;-2.00;99.90
8340;DHT22;4207;49.314;7.162;2023-02-08T01:27:45;-2.00;99.90
8340;DHT22;4207;49.314;7.162;2023-02-08T01:30:15;-2.00;99.90
8340;DHT22;4207;49.314;7.162;2023-02-08T01:32:43;-2.00;99.90
8340;DHT22;4207;49.314;7.162;2023-02-08T01:35:11;-2.00;99.90
8340;DHT22;4207;49.314;7.162;2023-02-08T01:37:39;-2.00;99.90
8340;DHT22;4207;49.314;7.162;2023-02-08T01:40:09;-2.00;99.90
8340;DHT22;4207;49.314;7.162;2023-02-08T01:42:37;-2.00;99.90
8340;DHT22;4207;49.314;7.162;2023-02-08T01:45:28;-2.00;99.90
8340;DHT22;4207;49.314;7.162;2023-02-08T01:48:02;-2.00;99.90
8340;DHT22;4207;49.314;7.162;2023-02-08T01:50:35;-2.00;99.90
8340;DHT22;4207;49.314;7.162;2023-02-08T01:53:06;-2.00;99.90
8340;DHT22;4207;49.314;7.162;2023-02-08T01:55:38;-2.00;99.90
8340;DHT22;4207;49.314;7.162;2023-02-08T01:58:09;-2.10;99.90
8340;DHT22;4207;49.314;7.162;2023-02-08T02:00:40;-2.10;99.90
8340;DHT22;4207;49.314;7.162;2023-02-08T02:03:12;-2.10;99.90
8340;DHT22;4207;49.314;7.162;2023-02-08T02:05:42;-2.20;99.90
8340;DHT22;4207;49.314;7.162;2023-02-08T02:08:11;-2.20;99.90
8340;DHT22;4207;49.314;7.162;2023-02-08T02:10:40;-2.20;99.90
8340;DHT22;4207;49.314;7.162;2023-02-08T02:13:11;-2.20;99.90
8340;DHT22;4207;49.314;7.162;2023-02-08T02:15:44;-2.20;99.90
8340;DHT22;4207;49.314;7.162;2023-02-08T02:18:17;-2.20;99.90
8340;DHT22;4207;49.314;7.162;2023-02-08T02:24:05;-2.10;99.90
8340;DHT22;4207;49.314;7.162;2023-02-08T02:27:12;-2.10;99.90
8340;DHT22;4207;49.314;7.162;2023-02-08T02:30:07;-2.10;99.90
8340;DHT22;4207;49.314;7.162;2023-02-08T02:33:15;-2.20;99.90
8340;DHT22;4207;49.314;7.162;2023-02-08T02:35:46;-2.20;99.90
8340;DHT22;4207;49.314;7.162;2023-02-08T02:38:26;-2.20;99.90
8340;DHT22;4207;49.314;7.162;2023-02-08T02:41:05;-2.20;99.90
8340;DHT22;4207;49.314;7.162;2023-02-08T02:43:41;-2.20;99.90
8340;DHT22;4207;49.314;7.162;2023-02-08T02:46:21;-2.20;99.90
8340;DHT22;4207;49.314;7.162;2023-02-08T02:48:58;-2.20;99.90
8340;DHT22;4207;49.314;7.162;2023-02-08T02:51:34;-2.20;99.90
8340;DHT22;4207;49.314;7.162;2023-02-08T02:54:08;-2.20;99.90
8340;DHT22;4207;49.314;7.162;2023-02-08T02:56:41;-2.20;99.90
8340;DHT22;4207;49.314;7.162;2023-02-08T02:59:11;-2.20;99.90
8340;DHT22;4207;49.314;7.162;2023-02-08T03:01:41;-2.10;99.90
8340;DHT22;4207;49.314;7.162;2023-02-08T03:04:13;-2.10;99.90
8340;DHT22;4207;49.314;7.162;2023-02-08T03:06:51;-2.10;99.90
8340;DHT22;4207;49.314;7.162;2023-02-08T03:09:44;-2.10;99.90
8340;DHT22;4207;49.314;7.162;2023-02-08T03:12:25;-2.10;99.90
8340;DHT22;4207;49.314;7.162;2023-02-08T03:14:59;-2.20;99.90
8340;DHT22;4207;49.314;7.162;2023-02-08T03:17:37;-2.20;99.90
8340;DHT22;4207;49.314;7.162;2023-02-08T03:20:17;-2.20;99.90
8340;DHT22;4207;49.314;7.162;2023-02-08T03:22:57;-2.20;99.90
8340;DHT22;4207;49.314;7.162;2023-02-08T03:25:33;-2.20;99.90
8340;DHT22;4207;49.314;7.162;2023-02-08T03:28:07;-2.20;99.90
8340;DHT22;4207;49.314;7.162;2023-02-08T03:30:39;-2.20;99.90
8340;DHT22;4207;49.314;7.162;2023-02-08T03:33:17;-2.20;99.90
8340;DHT22;4207;49.314;7.162;2023-02-08T03:35:52;-2.20;99.90
8340;DHT22;4207;49.314;7.162;2023-02-08T03:38:27;-2.20;99.90
8340;DHT22;4207;49.314;7.162;2023-02-08T03:40:58;-2.30;99.90
8340;DHT22;4207;49.314;7.162;2023-02-08T03:43:30;-2.20;99.90
8340;DHT22;4207;49.314;7.162;2023-02-08T03:46:06;-2.20;99.90
8340;DHT22;4207;49.314;7.162;2023-02-08T03:48:40;-2.20;99.90
8340;DHT22;4207;49.314;7.162;2023-02-08T03:51:11;-2.20;99.90
8340;DHT22;4207;49.314;7.162;2023-02-08T03:53:41;-2.20;99.90
8340;DHT22;4207;49.314;7.162;2023-02-08T03:56:14;-2.20;99.90
8340;DHT22;4207;49.314;7.162;2023-02-08T03:58:46;-2.10;99.90
8340;DHT22;4207;49.314;7.162;2023-02-08T04:01:18;-2.10;99.90
8340;DHT22;4207;49.314;7.162;2023-02-08T04:03:49;-2.10;99.90
8340;DHT22;4207;49.314;7.162;2023-02-08T04:06:21;-2.10;99.90
8340;DHT22;4207;49.314;7.162;2023-02-08T04:08:49;-2.10;99.90
8340;DHT22;4207;49.314;7.162;2023-02-08T04:11:17;-2.10;99.90
8340;DHT22;4207;49.314;7.162;2023-02-08T04:13:45;-2.10;99.90
8340;DHT22;4207;49.314;7.162;2023-02-08T04:16:13;-2.10;99.90
8340;DHT22;4207;49.314;7.162;2023-02-08T04:18:41;-2.10;99.90
8340;DHT22;4207;49.314;7.162;2023-02-08T04:21:09;-2.10;99.90
8340;DHT22;4207;49.314;7.162;2023-02-08T04:23:38;-2.10;99.90
8340;DHT22;4207;49.314;7.162;2023-02-08T04:26:06;-2.10;99.90
8340;DHT22;4207;49.314;7.162;2023-02-08T04:28:35;-2.10;99.90
8340;DHT22;4207;49.314;7.162;2023-02-08T04:31:03;-2.10;99.90
8340;DHT22;4207;49.314;7.162;2023-02-08T04:33:31;-2.10;99.90
8340;DHT22;4207;49.314;7.162;2023-02-08T04:35:59;-2.00;99.90
8340;DHT22;4207;49.314;7.162;2023-02-08T04:38:27;-2.00;99.90
8340;DHT22;4207;49.314;7.162;2023-02-08T04:40:56;-2.10;99.90
8340;DHT22;4207;49.314;7.162;2023-02-08T04:43:24;-2.10;99.90
8340;DHT22;4207;49.314;7.162;2023-02-08T04:45:52;-2.10;99.90
8340;DHT22;4207;49.314;7.162;2023-02-08T04:48:20;-2.10;99.90
8340;DHT22;4207;49.314;7.162;2023-02-08T04:50:48;-2.20;99.90
8340;DHT22;4207;49.314;7.162;2023-02-08T04:53:16;-2.20;99.90
8340;DHT22;4207;49.314;7.162;2023-02-08T04:55:44;-2.20;99.90
8340;DHT22;4207;49.314;7.162;2023-02-08T04:58:14;-2.20;99.90
8340;DHT22;4207;49.314;7.162;2023-02-08T05:00:42;-2.30;99.90
8340;DHT22;4207;49.314;7.162;2023-02-08T05:03:10;-2.30;99.90
8340;DHT22;4207;49.314;7.162;2023-02-08T05:05:38;-2.30;99.90
8340;DHT22;4207;49.314;7.162;2023-02-08T05:08:06;-2.30;99.90
8340;DHT22;4207;49.314;7.162;2023-02-08T05:10:36;-2.30;99.90
8340;DHT22;4207;49.314;7.162;2023-02-08T05:13:05;-2.30;99.90
8340;DHT22;4207;49.314;7.162;2023-02-08T05:15:35;-2.30;99.90
8340;DHT22;4207;49.314;7.162;2023-02-08T05:18:03;-2.30;99.90
8340;DHT22;4207;49.314;7.162;2023-02-08T05:20:31;-2.30;99.90
8340;DHT22;4207;49.314;7.162;2023-02-08T05:22:59;-2.30;99.90
8340;DHT22;4207;49.314;7.162;2023-02-08T05:25:27;-2.40;99.90
8340;DHT22;4207;49.314;7.162;2023-02-08T05:27:55;-2.40;99.90
8340;DHT22;4207;49.314;7.162;2023-02-08T05:30:23;-2.40;99.90
8340;DHT22;4207;49.314;7.162;2023-02-08T05:32:52;-2.40;99.90
8340;DHT22;4207;49.314;7.162;2023-02-08T05:35:20;-2.40;99.90
8340;DHT22;4207;49.314;7.162;2023-02-08T05:37:48;-2.40;99.90
8340;DHT22;4207;49.314;7.162;2023-02-08T05:40:16;-2.40;99.90
8340;DHT22;4207;49.314;7.162;2023-02-08T05:42:44;-2.40;99.90
8340;DHT22;4207;49.314;7.162;2023-02-08T05:45:13;-2.40;99.90
8340;DHT22;4207;49.314;7.162;2023-02-08T05:47:41;-2.40;99.90
8340;DHT22;4207;49.314;7.162;2023-02-08T05:50:10;-2.30;99.90
8340;DHT22;4207;49.314;7.162;2023-02-08T05:52:39;-2.30;99.90
8340;DHT22;4207;49.314;7.162;2023-02-08T05:55:07;-2.20;99.90
8340;DHT22;4207;49.314;7.162;2023-02-08T05:57:35;-2.20;99.90
8340;DHT22;4207;49.314;7.162;2023-02-08T06:00:04;-2.20;99.90
8340;DHT22;4207;49.314;7.162;2023-02-08T06:02:41;-2.10;99.90
8340;DHT22;4207;49.314;7.162;2023-02-08T06:05:13;-2.10;99.90
8340;DHT22;4207;49.314;7.162;2023-02-08T06:07:41;-2.10;99.90
8340;DHT22;4207;49.314;7.162;2023-02-08T06:10:09;-2.10;99.90
8340;DHT22;4207;49.314;7.162;2023-02-08T06:12:37;-2.10;99.90
8340;DHT22;4207;49.314;7.162;2023-02-08T06:15:06;-2.10;99.90
8340;DHT22;4207;49.314;7.162;2023-02-08T06:17:34;-2.10;99.90
8340;DHT22;4207;49.314;7.162;2023-02-08T06:20:02;-2.10;99.90
8340;DHT22;4207;49.314;7.162;2023-02-08T06:22:33;-2.10;99.90
8340;DHT22;4207;49.314;7.162;2023-02-08T06:25:02;-2.20;99.90
8340;DHT22;4207;49.314;7.162;2023-02-08T06:27:30;-2.20;99.90
8340;DHT22;4207;49.314;7.162;2023-02-08T06:29:58;-2.30;99.90
8340;DHT22;4207;49.314;7.162;2023-02-08T06:32:25;-2.30;99.90
8340;DHT22;4207;49.314;7.162;2023-02-08T06:34:54;-2.30;99.90
8340;DHT22;4207;49.314;7.162;2023-02-08T06:37:21;-2.30;99.90
8340;DHT22;4207;49.314;7.162;2023-02-08T06:39:51;-2.30;99.90
8340;DHT22;4207;49.314;7.162;2023-02-08T06:42:19;-2.40;99.90
8340;DHT22;4207;49.314;7.162;2023-02-08T06:44:47;-2.30;99.90
8340;DHT22;4207;49.314;7.162;2023-02-08T06:47:21;-2.30;99.90
8340;DHT22;4207;49.314;7.162;2023-02-08T06:49:49;-2.40;99.90
8340;DHT22;4207;49.314;7.162;2023-02-08T06:52:17;-2.40;99.90
8340;DHT22;4207;49.314;7.162;2023-02-08T06:54:46;-2.40;99.90
8340;DHT22;4207;49.314;7.162;2023-02-08T06:57:15;-2.40;99.90
8340;DHT22;4207;49.314;7.162;2023-02-08T06:59:44;-2.50;99.90
8340;DHT22;4207;49.314;7.162;2023-02-08T07:02:13;-2.50;99.90
8340;DHT22;4207;49.314;7.162;2023-02-08T07:04:41;-2.50;99.90
8340;DHT22;4207;49.314;7.162;2023-02-08T07:07:10;-2.50;99.90
8340;DHT22;4207;49.314;7.162;2023-02-08T07:09:38;-2.50;99.90
8340;DHT22;4207;49.314;7.162;2023-02-08T07:12:07;-2.40;99.90
8340;DHT22;4207;49.314;7.162;2023-02-08T07:14:39;-2.40;99.90
8340;DHT22;4207;49.314;7.162;2023-02-08T07:17:07;-2.40;99.90
8340;DHT22;4207;49.314;7.162;2023-02-08T07:19:36;-2.40;99.90
8340;DHT22;4207;49.314;7.162;2023-02-08T07:22:03;-2.40;99.90
8340;DHT22;4207;49.314;7.162;2023-02-08T07:24:34;-2.40;99.90
8340;DHT22;4207;49.314;7.162;2023-02-08T07:27:03;-2.40;99.90
8340;DHT22;4207;49.314;7.162;2023-02-08T07:29:32;-2.40;99.90
8340;DHT22;4207;49.314;7.162;2023-02-08T07:32:03;-2.40;99.90
8340;DHT22;4207;49.314;7.162;2023-02-08T07:34:33;-2.30;99.90
8340;DHT22;4207;49.314;7.162;2023-02-08T07:37:02;-2.30;99.90
8340;DHT22;4207;49.314;7.162;2023-02-08T07:39:30;-2.30;99.90
8340;DHT22;4207;49.314;7.162;2023-02-08T07:41:58;-2.30;99.90
8340;DHT22;4207;49.314;7.162;2023-02-08T07:44:32;-2.20;99.90
8340;DHT22;4207;49.314;7.162;2023-02-08T07:47:02;-2.10;99.90
8340;DHT22;4207;49.314;7.162;2023-02-08T07:49:30;-2.00;99.90
8340;DHT22;4207;49.314;7.162;2023-02-08T07:51:58;-1.90;99.90
8340;DHT22;4207;49.314;7.162;2023-02-08T07:54:27;-1.80;99.90
8340;DHT22;4207;49.314;7.162;2023-02-08T07:56:55;-1.70;99.90
8340;DHT22;4207;49.314;7.162;2023-02-08T07:59:23;-1.70;99.90
8340;DHT22;4207;49.314;7.162;2023-02-08T08:01:51;-1.70;99.90
8340;DHT22;4207;49.314;7.162;2023-02-08T08:04:20;-1.60;99.90
8340;DHT22;4207;49.314;7.162;2023-02-08T08:06:48;-1.60;99.90
8340;DHT22;4207;49.314;7.162;2023-02-08T08:09:17;-1.60;99.90
8340;DHT22;4207;49.314;7.162;2023-02-08T08:11:46;-1.50;99.90
8340;DHT22;4207;49.314;7.162;2023-02-08T08:14:14;-1.50;99.90
8340;DHT22;4207;49.314;7.162;2023-02-08T08:16:42;-1.40;99.90
8340;DHT22;4207;49.314;7.162;2023-02-08T08:19:10;-1.40;99.90
8340;DHT22;4207;49.314;7.162;2023-02-08T08:21:39;-1.30;99.90
8340;DHT22;4207;49.314;7.162;2023-02-08T08:24:07;-1.30;99.90
8340;DHT22;4207;49.314;7.162;2023-02-08T08:26:35;-1.30;99.90
8340;DHT22;4207;49.314;7.162;2023-02-08T08:29:03;-1.30;99.90
8340;DHT22;4207;49.314;7.162;2023-02-08T08:31:32;-1.20;99.90
8340;DHT22;4207;49.314;7.162;2023-02-08T08:34:00;-1.10;99.90
8340;DHT22;4207;49.314;7.162;2023-02-08T08:36:28;-1.10;99.90
8340;DHT22;4207;49.314;7.162;2023-02-08T08:38:58;-1.00;99.90
8340;DHT22;4207;49.314;7.162;2023-02-08T08:41:26;-1.00;99.90
8340;DHT22;4207;49.314;7.162;2023-02-08T08:43:54;-1.00;99.90
8340;DHT22;4207;49.314;7.162;2023-02-08T08:46:22;-0.90;99.90
8340;DHT22;4207;49.314;7.162;2023-02-08T08:48:50;-0.80;99.90
8340;DHT22;4207;49.314;7.162;2023-02-08T08:51:18;-0.80;99.90
8340;DHT22;4207;49.314;7.162;2023-02-08T08:53:46;-0.70;99.90
8340;DHT22;4207;49.314;7.162;2023-02-08T08:56:16;-0.70;99.90
8340;DHT22;4207;49.314;7.162;2023-02-08T08:58:44;-0.70;99.90
8340;DHT22;4207;49.314;7.162;2023-02-08T09:01:12;-0.60;99.90
8340;DHT22;4207;49.314;7.162;2023-02-08T09:03:40;-0.60;99.90
8340;DHT22;4207;49.314;7.162;2023-02-08T09:06:08;-0.50;99.90
8340;DHT22;4207;49.314;7.162;2023-02-08T09:08:36;-0.50;99.90
8340;DHT22;4207;49.314;7.162;2023-02-08T09:11:05;-0.40;99.90
8340;DHT22;4207;49.314;7.162;2023-02-08T09:13:35;-0.40;99.90
8340;DHT22;4207;49.314;7.162;2023-02-08T09:16:07;-0.40;99.90
8340;DHT22;4207;49.314;7.162;2023-02-08T09:18:36;-0.30;99.90
8340;DHT22;4207;49.314;7.162;2023-02-08T09:21:05;-0.30;99.90
8340;DHT22;4207;49.314;7.162;2023-02-08T09:23:33;-0.20;99.90
8340;DHT22;4207;49.314;7.162;2023-02-08T09:26:01;-0.20;99.90
8340;DHT22;4207;49.314;7.162;2023-02-08T09:28:30;-0.20;99.90
8340;DHT22;4207;49.314;7.162;2023-02-08T09:31:06;-0.10;99.90
8340;DHT22;4207;49.314;7.162;2023-02-08T09:33:34;0.00;99.90
8340;DHT22;4207;49.314;7.162;2023-02-08T09:36:03;0.00;99.90
8340;DHT22;4207;49.314;7.162;2023-02-08T09:38:32;0.10;99.90
8340;DHT22;4207;49.314;7.162;2023-02-08T09:41:08;0.10;99.90
8340;DHT22;4207;49.314;7.162;2023-02-08T09:43:45;0.20;99.90
8340;DHT22;4207;49.314;7.162;2023-02-08T09:46:20;0.20;99.90
8340;DHT22;4207;49.314;7.162;2023-02-08T09:48:49;0.30;99.90
8340;DHT22;4207;49.314;7.162;2023-02-08T09:51:24;0.30;99.90
8340;DHT22;4207;49.314;7.162;2023-02-08T09:53:57;0.40;99.90
8340;DHT22;4207;49.314;7.162;2023-02-08T09:56:28;0.50;99.90
8340;DHT22;4207;49.314;7.162;2023-02-08T09:58:58;0.70;99.90
8340;DHT22;4207;49.314;7.162;2023-02-08T10:01:31;0.60;99.90
8340;DHT22;4207;49.314;7.162;2023-02-08T10:04:03;0.70;99.90
8340;DHT22;4207;49.314;7.162;2023-02-08T10:06:32;0.80;99.90
8340;DHT22;4207;49.314;7.162;2023-02-08T10:09:03;0.80;99.90
8340;DHT22;4207;49.314;7.162;2023-02-08T10:11:40;0.90;99.90
8340;DHT22;4207;49.314;7.162;2023-02-08T10:14:30;0.90;99.60
8340;DHT22;4207;49.314;7.162;2023-02-08T10:17:12;1.00;99.50
8340;DHT22;4207;49.314;7.162;2023-02-08T10:19:53;1.10;99.80
8340;DHT22;4207;49.314;7.162;2023-02-08T10:22:30;1.10;99.60
8340;DHT22;4207;49.314;7.162;2023-02-08T10:25:26;1.20;99.50
8340;DHT22;4207;49.314;7.162;2023-02-08T10:28:13;1.30;99.20
8340;DHT22;4207;49.314;7.162;2023-02-08T10:30:44;1.40;98.80
8340;DHT22;4207;49.314;7.162;2023-02-08T10:33:22;1.50;98.40
8340;DHT22;4207;49.314;7.162;2023-02-08T10:35:53;1.50;98.30
8340;DHT22;4207;49.314;7.162;2023-02-08T10:38:24;1.60;98.40
8340;DHT22;4207;49.314;7.162;2023-02-08T10:41:07;1.70;97.90
8340;DHT22;4207;49.314;7.162;2023-02-08T10:43:39;1.70;96.90
8340;DHT22;4207;49.314;7.162;2023-02-08T10:46:13;1.80;96.80
8340;DHT22;4207;49.314;7.162;2023-02-08T10:48:54;1.80;96.80
8340;DHT22;4207;49.314;7.162;2023-02-08T10:51:27;1.90;96.50
8340;DHT22;4207;49.314;7.162;2023-02-08T10:53:56;2.00;96.40
8340;DHT22;4207;49.314;7.162;2023-02-08T10:56:38;2.00;96.50
8340;DHT22;4207;49.314;7.162;2023-02-08T10:59:14;2.10;96.40
8340;DHT22;4207;49.314;7.162;2023-02-08T11:01:45;2.20;95.50
8340;DHT22;4207;49.314;7.162;2023-02-08T11:04:17;2.20;95.70
8340;DHT22;4207;49.314;7.162;2023-02-08T11:06:48;2.40;95.80
8340;DHT22;4207;49.314;7.162;2023-02-08T11:09:23;2.50;93.90
8340;DHT22;4207;49.314;7.162;2023-02-08T11:11:52;2.60;94.10
8340;DHT22;4207;49.314;7.162;2023-02-08T11:14:24;2.60;93.20
8340;DHT22;4207;49.314;7.162;2023-02-08T11:17:25;2.70;93.30
8340;DHT22;4207;49.314;7.162;2023-02-08T11:19:55;2.70;93.10
8340;DHT22;4207;49.314;7.162;2023-02-08T11:22:26;2.80;92.80
8340;DHT22;4207;49.314;7.162;2023-02-08T11:24:58;2.80;92.00
8340;DHT22;4207;49.314;7.162;2023-02-08T11:27:32;2.90;91.70
8340;DHT22;4207;49.314;7.162;2023-02-08T11:30:25;3.00;90.80
8340;DHT22;4207;49.314;7.162;2023-02-08T11:33:15;3.10;90.50
8340;DHT22;4207;49.314;7.162;2023-02-08T11:35:58;3.10;90.90
8340;DHT22;4207;49.314;7.162;2023-02-08T11:38:28;3.20;90.90
8340;DHT22;4207;49.314;7.162;2023-02-08T11:40:58;3.30;90.50
8340;DHT22;4207;49.314;7.162;2023-02-08T11:43:29;3.30;90.10
8340;DHT22;4207;49.314;7.162;2023-02-08T11:45:58;3.40;90.00
8340;DHT22;4207;49.314;7.162;2023-02-08T11:48:34;3.40;88.80
8340;DHT22;4207;49.314;7.162;2023-02-08T11:51:06;3.50;89.00
8340;DHT22;4207;49.314;7.162;2023-02-08T11:53:37;3.50;87.90
8340;DHT22;4207;49.314;7.162;2023-02-08T11:56:15;3.90;89.20
8340;DHT22;4207;49.314;7.162;2023-02-08T11:58:55;3.50;86.20
8340;DHT22;4207;49.314;7.162;2023-02-08T12:01:27;3.60;88.40
8340;DHT22;4207;49.314;7.162;2023-02-08T12:03:58;3.70;88.20
8340;DHT22;4207;49.314;7.162;2023-02-08T12:09:32;3.70;86.80
8340;DHT22;4207;49.314;7.162;2023-02-08T12:12:12;3.80;85.00
8340;DHT22;4207;49.314;7.162;2023-02-08T12:14:57;3.80;85.20
8340;DHT22;4207;49.314;7.162;2023-02-08T12:18:03;3.80;85.00
8340;DHT22;4207;49.314;7.162;2023-02-08T12:20:38;3.80;83.80
8340;DHT22;4207;49.314;7.162;2023-02-08T12:26:42;3.80;83.60
8340;DHT22;4207;49.314;7.162;2023-02-08T12:29:27;3.80;82.40
8340;DHT22;4207;49.314;7.162;2023-02-08T12:32:36;3.80;83.80
8340;DHT22;4207;49.314;7.162;2023-02-08T12:35:35;3.80;82.60
8340;DHT22;4207;49.314;7.162;2023-02-08T12:38:28;3.90;82.10
8340;DHT22;4207;49.314;7.162;2023-02-08T12:41:21;3.90;83.70
8340;DHT22;4207;49.314;7.162;2023-02-08T12:43:57;3.90;81.90
8340;DHT22;4207;49.314;7.162;2023-02-08T12:46:50;3.90;81.60
8340;DHT22;4207;49.314;7.162;2023-02-08T12:49:35;4.00;83.20
8340;DHT22;4207;49.314;7.162;2023-02-08T12:52:22;4.00;81.10
8340;DHT22;4207;49.314;7.162;2023-02-08T12:54:56;4.00;78.90
8340;DHT22;4207;49.314;7.162;2023-02-08T12:57:25;4.00;80.70
8340;DHT22;4207;49.314;7.162;2023-02-08T13:00:02;4.10;81.40
8340;DHT22;4207;49.314;7.162;2023-02-08T13:02:34;4.10;79.60
8340;DHT22;4207;49.314;7.162;2023-02-08T13:05:13;4.20;78.20
8340;DHT22;4207;49.314;7.162;2023-02-08T13:07:43;4.10;78.40
8340;DHT22;4207;49.314;7.162;2023-02-08T13:10:19;4.20;77.30
8340;DHT22;4207;49.314;7.162;2023-02-08T13:12:55;4.20;77.20
8340;DHT22;4207;49.314;7.162;2023-02-08T13:15:31;4.20;77.00
8340;DHT22;4207;49.314;7.162;2023-02-08T13:18:04;4.20;77.80
8340;DHT22;4207;49.314;7.162;2023-02-08T13:20:40;4.20;78.00
8340;DHT22;4207;49.314;7.162;2023-02-08T13:23:17;4.20;78.80
8340;DHT22;4207;49.314;7.162;2023-02-08T13:25:54;4.30;77.80
8340;DHT22;4207;49.314;7.162;2023-02-08T13:28:23;4.50;79.70
8340;DHT22;4207;49.314;7.162;2023-02-08T13:30:57;4.30;80.10
8340;DHT22;4207;49.314;7.162;2023-02-08T13:33:32;4.30;79.50
8340;DHT22;4207;49.314;7.162;2023-02-08T13:36:02;4.30;79.80
8340;DHT22;4207;49.314;7.162;2023-02-08T13:38:32;4.30;78.60
8340;DHT22;4207;49.314;7.162;2023-02-08T13:41:05;4.30;79.50
8340;DHT22;4207;49.314;7.162;2023-02-08T13:43:40;4.20;79.90
8340;DHT22;4207;49.314;7.162;2023-02-08T13:46:11;4.30;87.60
8340;DHT22;4207;49.314;7.162;2023-02-08T13:48:43;4.40;83.90
8340;DHT22;4207;49.314;7.162;2023-02-08T13:54:28;4.40;80.10
8340;DHT22;4207;49.314;7.162;2023-02-08T13:56:56;4.40;81.00
8340;DHT22;4207;49.314;7.162;2023-02-08T13:59:27;4.40;81.60
8340;DHT22;4207;49.314;7.162;2023-02-08T14:02:26;4.40;80.50
8340;DHT22;4207;49.314;7.162;2023-02-08T14:07:44;4.30;80.70
8340;DHT22;4207;49.314;7.162;2023-02-08T14:10:21;4.30;80.70
8340;DHT22;4207;49.314;7.162;2023-02-08T14:12:55;4.30;81.50
8340;DHT22;4207;49.314;7.162;2023-02-08T14:15:27;4.30;83.10
8340;DHT22;4207;49.314;7.162;2023-02-08T14:17:58;4.30;81.50
8340;DHT22;4207;49.314;7.162;2023-02-08T14:20:33;4.20;81.10
8340;DHT22;4207;49.314;7.162;2023-02-08T14:23:04;4.30;80.40
8340;DHT22;4207;49.314;7.162;2023-02-08T14:25:42;4.20;80.10
8340;DHT22;4207;49.314;7.162;2023-02-08T14:28:28;4.20;79.70
8340;DHT22;4207;49.314;7.162;2023-02-08T14:30:59;4.20;81.00
8340;DHT22;4207;49.314;7.162;2023-02-08T14:33:32;4.20;79.70
8340;DHT22;4207;49.314;7.162;2023-02-08T14:36:04;4.20;81.20
8340;DHT22;4207;49.314;7.162;2023-02-08T14:38:52;4.20;78.80
8340;DHT22;4207;49.314;7.162;2023-02-08T14:41:46;4.10;79.30
8340;DHT22;4207;49.314;7.162;2023-02-08T14:50:31;4.10;80.80
8340;DHT22;4207;49.314;7.162;2023-02-08T14:53:04;4.10;79.40
8340;DHT22;4207;49.314;7.162;2023-02-08T14:55:39;4.10;79.50
8340;DHT22;4207;49.314;7.162;2023-02-08T14:58:14;4.00;79.60
8340;DHT22;4207;49.314;7.162;2023-02-08T15:00:43;4.00;79.50
8340;DHT22;4207;49.314;7.162;2023-02-08T15:03:13;4.00;80.60
8340;DHT22;4207;49.314;7.162;2023-02-08T15:06:02;4.00;79.70
8340;DHT22;4207;49.314;7.162;2023-02-08T15:08:33;3.90;81.00
8340;DHT22;4207;49.314;7.162;2023-02-08T15:11:02;3.90;81.10
8340;DHT22;4207;49.314;7.162;2023-02-08T15:13:30;3.80;80.30
8340;DHT22;4207;49.314;7.162;2023-02-08T15:15:58;3.80;81.00
8340;DHT22;4207;49.314;7.162;2023-02-08T15:18:30;3.70;80.90
8340;DHT22;4207;49.314;7.162;2023-02-08T15:21:02;3.70;80.60
8340;DHT22;4207;49.314;7.162;2023-02-08T15:23:31;3.70;81.80
8340;DHT22;4207;49.314;7.162;2023-02-08T15:26:01;3.60;82.40
8340;DHT22;4207;49.314;7.162;2023-02-08T15:28:33;3.60;81.60
8340;DHT22;4207;49.314;7.162;2023-02-08T15:31:03;3.60;81.60
8340;DHT22;4207;49.314;7.162;2023-02-08T15:33:33;3.50;82.30
8340;DHT22;4207;49.314;7.162;2023-02-08T15:36:08;3.50;82.90
8340;DHT22;4207;49.314;7.162;2023-02-08T15:38:41;3.40;82.90
8340;DHT22;4207;49.314;7.162;2023-02-08T15:41:12;3.40;84.00
8340;DHT22;4207;49.314;7.162;2023-02-08T15:43:41;3.30;84.70
8340;DHT22;4207;49.314;7.162;2023-02-08T15:46:18;3.20;84.00
8340;DHT22;4207;49.314;7.162;2023-02-08T15:48:49;3.20;84.10
8340;DHT22;4207;49.314;7.162;2023-02-08T15:51:19;3.10;84.90
8340;DHT22;4207;49.314;7.162;2023-02-08T15:53:51;3.10;84.30
8340;DHT22;4207;49.314;7.162;2023-02-08T15:56:23;3.00;84.70
8340;DHT22;4207;49.314;7.162;2023-02-08T15:59:03;3.00;85.80
8340;DHT22;4207;49.314;7.162;2023-02-08T16:01:33;2.90;85.90
8340;DHT22;4207;49.314;7.162;2023-02-08T16:04:03;2.90;85.80
8340;DHT22;4207;49.314;7.162;2023-02-08T16:06:37;2.90;87.00
8340;DHT22;4207;49.314;7.162;2023-02-08T16:09:06;2.80;87.00
8340;DHT22;4207;49.314;7.162;2023-02-08T16:11:39;2.70;87.80
8340;DHT22;4207;49.314;7.162;2023-02-08T16:14:13;2.70;88.20
8340;DHT22;4207;49.314;7.162;2023-02-08T16:16:46;2.50;88.10
8340;DHT22;4207;49.314;7.162;2023-02-08T16:19:24;2.50;89.10
8340;DHT22;4207;49.314;7.162;2023-02-08T16:21:55;2.90;89.10
8340;DHT22;4207;49.314;7.162;2023-02-08T16:24:26;2.40;89.10
8340;DHT22;4207;49.314;7.162;2023-02-08T16:27:01;2.30;89.80
8340;DHT22;4207;49.314;7.162;2023-02-08T16:29:31;2.20;89.90
8340;DHT22;4207;49.314;7.162;2023-02-08T16:32:02;2.20;90.10
8340;DHT22;4207;49.314;7.162;2023-02-08T16:34:37;2.10;90.30
8340;DHT22;4207;49.314;7.162;2023-02-08T16:37:22;2.00;90.70
8340;DHT22;4207;49.314;7.162;2023-02-08T16:39:53;2.00;90.70
8340;DHT22;4207;49.314;7.162;2023-02-08T16:42:32;1.90;90.80
8340;DHT22;4207;49.314;7.162;2023-02-08T16:45:12;1.80;91.10
8340;DHT22;4207;49.314;7.162;2023-02-08T16:47:43;1.80;91.30
8340;DHT22;4207;49.314;7.162;2023-02-08T16:50:13;1.70;91.60
8340;DHT22;4207;49.314;7.162;2023-02-08T16:52:51;1.60;91.60
8340;DHT22;4207;49.314;7.162;2023-02-08T16:55:22;1.60;91.60
8340;DHT22;4207;49.314;7.162;2023-02-08T16:57:52;1.50;91.70
8340;DHT22;4207;49.314;7.162;2023-02-08T17:00:24;1.50;91.60
8340;DHT22;4207;49.314;7.162;2023-02-08T17:02:52;1.40;91.70
8340;DHT22;4207;49.314;7.162;2023-02-08T17:05:22;1.40;91.80